<?xml version="1.0" encoding="UTF-8" standalone="no" ?>
<gpx xmlns="http://www.topografix.com/GPX/1/1" xmlns:xsi="http://www.w3.org/2001/XMLSchema-instance" xsi:schemaLocation="http://www.topografix.com/GPX/1/1 http://www.topografix.com/GPX/1/1/gpx.xsd" version="1.1" creator="VisuGPX - https://www.visugpx.com">
  <metadata>
    <name>Etape 2 Férel - Les Moûtiers</name>
    <desc><![CDATA[Randonnée vélo Rennes - Hendaye, empruntant la Vélodyssée à partir de Saint-Brevin-Les-Pins. ]]></desc>
  </metadata>
  <trk>
    <name><![CDATA[Sequence 1]]></name>
    <trkseg>
      <trkpt lat="47.49482" lon="-2.35655">
        <ele>-59</ele>
        <time>2016-07-22T04:41:46Z</time>
      </trkpt>
      <trkpt lat="47.49374" lon="-2.35907">
        <ele>-56</ele>
        <time>2016-07-22T04:41:58Z</time>
      </trkpt>
      <trkpt lat="47.49348" lon="-2.35922">
        <ele>-54</ele>
        <time>2016-07-22T04:42:05Z</time>
      </trkpt>
      <trkpt lat="47.49331" lon="-2.35912">
        <ele>-54</ele>
        <time>2016-07-22T04:42:09Z</time>
      </trkpt>
      <trkpt lat="47.49313" lon="-2.35912">
        <ele>-59</ele>
        <time>2016-07-22T04:42:13Z</time>
      </trkpt>
      <trkpt lat="47.49289" lon="-2.35895">
        <ele>-64</ele>
        <time>2016-07-22T04:42:19Z</time>
      </trkpt>
      <trkpt lat="47.49257" lon="-2.35873">
        <ele>-64</ele>
        <time>2016-07-22T04:42:27Z</time>
      </trkpt>
      <trkpt lat="47.49246" lon="-2.3587">
        <ele>-62</ele>
        <time>2016-07-22T04:42:30Z</time>
      </trkpt>
      <trkpt lat="47.49235" lon="-2.35865">
        <ele>-62</ele>
        <time>2016-07-22T04:42:33Z</time>
      </trkpt>
      <trkpt lat="47.4921" lon="-2.35867">
        <ele>-60</ele>
        <time>2016-07-22T04:42:39Z</time>
      </trkpt>
      <trkpt lat="47.49199" lon="-2.35867">
        <ele>-61</ele>
        <time>2016-07-22T04:42:43Z</time>
      </trkpt>
      <trkpt lat="47.492" lon="-2.35873">
        <ele>-61</ele>
        <time>2016-07-22T04:42:57Z</time>
      </trkpt>
      <trkpt lat="47.49197" lon="-2.3587">
        <ele>-61</ele>
        <time>2016-07-22T04:43:02Z</time>
      </trkpt>
      <trkpt lat="47.49183" lon="-2.35861">
        <ele>-62</ele>
        <time>2016-07-22T04:43:07Z</time>
      </trkpt>
      <trkpt lat="47.49165" lon="-2.35861">
        <ele>-60</ele>
        <time>2016-07-22T04:43:12Z</time>
      </trkpt>
      <trkpt lat="47.49161" lon="-2.35861">
        <ele>-58</ele>
        <time>2016-07-22T04:43:13Z</time>
      </trkpt>
      <trkpt lat="47.49132" lon="-2.3586">
        <ele>-51</ele>
        <time>2016-07-22T04:43:20Z</time>
      </trkpt>
      <trkpt lat="47.49127" lon="-2.3587">
        <ele>-41</ele>
        <time>2016-07-22T04:43:26Z</time>
      </trkpt>
      <trkpt lat="47.4912" lon="-2.35886">
        <ele>-25</ele>
        <time>2016-07-22T04:43:32Z</time>
      </trkpt>
      <trkpt lat="47.49105" lon="-2.35895">
        <ele>-13</ele>
        <time>2016-07-22T04:43:37Z</time>
      </trkpt>
      <trkpt lat="47.49094" lon="-2.35898">
        <ele>-9</ele>
        <time>2016-07-22T04:43:40Z</time>
      </trkpt>
      <trkpt lat="47.49079" lon="-2.35901">
        <ele>-2</ele>
        <time>2016-07-22T04:43:44Z</time>
      </trkpt>
      <trkpt lat="47.49044" lon="-2.35907">
        <ele>14</ele>
        <time>2016-07-22T04:43:52Z</time>
      </trkpt>
      <trkpt lat="47.49026" lon="-2.3591">
        <ele>23</ele>
        <time>2016-07-22T04:43:56Z</time>
      </trkpt>
      <trkpt lat="47.49006" lon="-2.35908">
        <ele>30</ele>
        <time>2016-07-22T04:44:01Z</time>
      </trkpt>
      <trkpt lat="47.48998" lon="-2.35906">
        <ele>30</ele>
        <time>2016-07-22T04:44:03Z</time>
      </trkpt>
      <trkpt lat="47.48979" lon="-2.35898">
        <ele>33</ele>
        <time>2016-07-22T04:44:08Z</time>
      </trkpt>
      <trkpt lat="47.48959" lon="-2.35891">
        <ele>35</ele>
        <time>2016-07-22T04:44:13Z</time>
      </trkpt>
      <trkpt lat="47.48939" lon="-2.3586">
        <ele>33</ele>
        <time>2016-07-22T04:44:18Z</time>
      </trkpt>
      <trkpt lat="47.48919" lon="-2.35833">
        <ele>32</ele>
        <time>2016-07-22T04:44:23Z</time>
      </trkpt>
      <trkpt lat="47.48898" lon="-2.35819">
        <ele>36</ele>
        <time>2016-07-22T04:44:28Z</time>
      </trkpt>
      <trkpt lat="47.48884" lon="-2.35806">
        <ele>43</ele>
        <time>2016-07-22T04:44:33Z</time>
      </trkpt>
      <trkpt lat="47.48864" lon="-2.35794">
        <ele>42</ele>
        <time>2016-07-22T04:44:38Z</time>
      </trkpt>
      <trkpt lat="47.48824" lon="-2.35792">
        <ele>45</ele>
        <time>2016-07-22T04:44:46Z</time>
      </trkpt>
      <trkpt lat="47.4881" lon="-2.35793">
        <ele>49</ele>
        <time>2016-07-22T04:44:49Z</time>
      </trkpt>
      <trkpt lat="47.48791" lon="-2.35789">
        <ele>51</ele>
        <time>2016-07-22T04:44:54Z</time>
      </trkpt>
      <trkpt lat="47.4878" lon="-2.35793">
        <ele>65</ele>
        <time>2016-07-22T04:44:58Z</time>
      </trkpt>
      <trkpt lat="47.48754" lon="-2.35803">
        <ele>67</ele>
        <time>2016-07-22T04:45:03Z</time>
      </trkpt>
      <trkpt lat="47.48731" lon="-2.35811">
        <ele>72</ele>
        <time>2016-07-22T04:45:08Z</time>
      </trkpt>
      <trkpt lat="47.48705" lon="-2.35816">
        <ele>76</ele>
        <time>2016-07-22T04:45:13Z</time>
      </trkpt>
      <trkpt lat="47.4869" lon="-2.35821">
        <ele>78</ele>
        <time>2016-07-22T04:45:18Z</time>
      </trkpt>
      <trkpt lat="47.4865" lon="-2.35831">
        <ele>77</ele>
        <time>2016-07-22T04:45:26Z</time>
      </trkpt>
      <trkpt lat="47.48617" lon="-2.35833">
        <ele>75</ele>
        <time>2016-07-22T04:45:32Z</time>
      </trkpt>
      <trkpt lat="47.48612" lon="-2.35833">
        <ele>74</ele>
        <time>2016-07-22T04:45:33Z</time>
      </trkpt>
      <trkpt lat="47.48574" lon="-2.35827">
        <ele>70</ele>
        <time>2016-07-22T04:45:40Z</time>
      </trkpt>
      <trkpt lat="47.48562" lon="-2.35823">
        <ele>67</ele>
        <time>2016-07-22T04:45:43Z</time>
      </trkpt>
      <trkpt lat="47.48539" lon="-2.35828">
        <ele>64</ele>
        <time>2016-07-22T04:45:48Z</time>
      </trkpt>
      <trkpt lat="47.48514" lon="-2.35839">
        <ele>61</ele>
        <time>2016-07-22T04:45:53Z</time>
      </trkpt>
      <trkpt lat="47.48502" lon="-2.35814">
        <ele>58</ele>
        <time>2016-07-22T04:45:58Z</time>
      </trkpt>
      <trkpt lat="47.48487" lon="-2.3578">
        <ele>56</ele>
        <time>2016-07-22T04:46:03Z</time>
      </trkpt>
      <trkpt lat="47.48463" lon="-2.35719">
        <ele>55</ele>
        <time>2016-07-22T04:46:11Z</time>
      </trkpt>
      <trkpt lat="47.48458" lon="-2.35708">
        <ele>56</ele>
        <time>2016-07-22T04:46:13Z</time>
      </trkpt>
      <trkpt lat="47.48445" lon="-2.3566">
        <ele>52</ele>
        <time>2016-07-22T04:46:19Z</time>
      </trkpt>
      <trkpt lat="47.48431" lon="-2.35639">
        <ele>51</ele>
        <time>2016-07-22T04:46:23Z</time>
      </trkpt>
      <trkpt lat="47.48417" lon="-2.35609">
        <ele>53</ele>
        <time>2016-07-22T04:46:28Z</time>
      </trkpt>
      <trkpt lat="47.48394" lon="-2.35568">
        <ele>49</ele>
        <time>2016-07-22T04:46:35Z</time>
      </trkpt>
      <trkpt lat="47.48379" lon="-2.35545">
        <ele>54</ele>
        <time>2016-07-22T04:46:40Z</time>
      </trkpt>
      <trkpt lat="47.4837" lon="-2.35528">
        <ele>56</ele>
        <time>2016-07-22T04:46:43Z</time>
      </trkpt>
      <trkpt lat="47.4834" lon="-2.35502">
        <ele>60</ele>
        <time>2016-07-22T04:46:51Z</time>
      </trkpt>
      <trkpt lat="47.48334" lon="-2.35494">
        <ele>59</ele>
        <time>2016-07-22T04:46:53Z</time>
      </trkpt>
      <trkpt lat="47.48309" lon="-2.35471">
        <ele>57</ele>
        <time>2016-07-22T04:46:59Z</time>
      </trkpt>
      <trkpt lat="47.48283" lon="-2.35441">
        <ele>56</ele>
        <time>2016-07-22T04:47:06Z</time>
      </trkpt>
      <trkpt lat="47.48266" lon="-2.35422">
        <ele>57</ele>
        <time>2016-07-22T04:47:11Z</time>
      </trkpt>
      <trkpt lat="47.4826" lon="-2.35417">
        <ele>57</ele>
        <time>2016-07-22T04:47:13Z</time>
      </trkpt>
      <trkpt lat="47.48254" lon="-2.35392">
        <ele>57</ele>
        <time>2016-07-22T04:47:18Z</time>
      </trkpt>
      <trkpt lat="47.48255" lon="-2.35344">
        <ele>58</ele>
        <time>2016-07-22T04:47:24Z</time>
      </trkpt>
      <trkpt lat="47.48257" lon="-2.35296">
        <ele>59</ele>
        <time>2016-07-22T04:47:30Z</time>
      </trkpt>
      <trkpt lat="47.48257" lon="-2.35273">
        <ele>59</ele>
        <time>2016-07-22T04:47:33Z</time>
      </trkpt>
      <trkpt lat="47.48257" lon="-2.35241">
        <ele>56</ele>
        <time>2016-07-22T04:47:38Z</time>
      </trkpt>
      <trkpt lat="47.48254" lon="-2.35209">
        <ele>53</ele>
        <time>2016-07-22T04:47:43Z</time>
      </trkpt>
      <trkpt lat="47.48247" lon="-2.35173">
        <ele>52</ele>
        <time>2016-07-22T04:47:48Z</time>
      </trkpt>
      <trkpt lat="47.48236" lon="-2.35125">
        <ele>53</ele>
        <time>2016-07-22T04:47:55Z</time>
      </trkpt>
      <trkpt lat="47.48232" lon="-2.35102">
        <ele>54</ele>
        <time>2016-07-22T04:47:58Z</time>
      </trkpt>
      <trkpt lat="47.48225" lon="-2.35069">
        <ele>54</ele>
        <time>2016-07-22T04:48:03Z</time>
      </trkpt>
      <trkpt lat="47.48218" lon="-2.35031">
        <ele>57</ele>
        <time>2016-07-22T04:48:08Z</time>
      </trkpt>
      <trkpt lat="47.48209" lon="-2.34985">
        <ele>60</ele>
        <time>2016-07-22T04:48:14Z</time>
      </trkpt>
      <trkpt lat="47.48203" lon="-2.34957">
        <ele>59</ele>
        <time>2016-07-22T04:48:18Z</time>
      </trkpt>
      <trkpt lat="47.48191" lon="-2.34899">
        <ele>57</ele>
        <time>2016-07-22T04:48:26Z</time>
      </trkpt>
      <trkpt lat="47.48189" lon="-2.34884">
        <ele>56</ele>
        <time>2016-07-22T04:48:28Z</time>
      </trkpt>
      <trkpt lat="47.48184" lon="-2.34849">
        <ele>55</ele>
        <time>2016-07-22T04:48:33Z</time>
      </trkpt>
      <trkpt lat="47.48182" lon="-2.34809">
        <ele>54</ele>
        <time>2016-07-22T04:48:38Z</time>
      </trkpt>
      <trkpt lat="47.48181" lon="-2.34769">
        <ele>54</ele>
        <time>2016-07-22T04:48:43Z</time>
      </trkpt>
      <trkpt lat="47.48184" lon="-2.34729">
        <ele>50</ele>
        <time>2016-07-22T04:48:48Z</time>
      </trkpt>
      <trkpt lat="47.48191" lon="-2.34688">
        <ele>47</ele>
        <time>2016-07-22T04:48:53Z</time>
      </trkpt>
      <trkpt lat="47.48199" lon="-2.34637">
        <ele>44</ele>
        <time>2016-07-22T04:48:59Z</time>
      </trkpt>
      <trkpt lat="47.48192" lon="-2.34602">
        <ele>44</ele>
        <time>2016-07-22T04:49:03Z</time>
      </trkpt>
      <trkpt lat="47.48189" lon="-2.34563">
        <ele>44</ele>
        <time>2016-07-22T04:49:08Z</time>
      </trkpt>
      <trkpt lat="47.48198" lon="-2.34526">
        <ele>41</ele>
        <time>2016-07-22T04:49:13Z</time>
      </trkpt>
      <trkpt lat="47.4821" lon="-2.34479">
        <ele>41</ele>
        <time>2016-07-22T04:49:18Z</time>
      </trkpt>
      <trkpt lat="47.48211" lon="-2.34442">
        <ele>41</ele>
        <time>2016-07-22T04:49:23Z</time>
      </trkpt>
      <trkpt lat="47.48207" lon="-2.344">
        <ele>39</ele>
        <time>2016-07-22T04:49:28Z</time>
      </trkpt>
      <trkpt lat="47.48199" lon="-2.3436">
        <ele>37</ele>
        <time>2016-07-22T04:49:33Z</time>
      </trkpt>
      <trkpt lat="47.48176" lon="-2.34314">
        <ele>36</ele>
        <time>2016-07-22T04:49:41Z</time>
      </trkpt>
      <trkpt lat="47.48174" lon="-2.34306">
        <ele>36</ele>
        <time>2016-07-22T04:49:43Z</time>
      </trkpt>
      <trkpt lat="47.48187" lon="-2.34268">
        <ele>37</ele>
        <time>2016-07-22T04:49:48Z</time>
      </trkpt>
      <trkpt lat="47.48177" lon="-2.34214">
        <ele>38</ele>
        <time>2016-07-22T04:49:55Z</time>
      </trkpt>
      <trkpt lat="47.48168" lon="-2.34188">
        <ele>37</ele>
        <time>2016-07-22T04:49:59Z</time>
      </trkpt>
      <trkpt lat="47.4816" lon="-2.3416">
        <ele>34</ele>
        <time>2016-07-22T04:50:03Z</time>
      </trkpt>
      <trkpt lat="47.48159" lon="-2.34155">
        <ele>37</ele>
        <time>2016-07-22T04:50:08Z</time>
      </trkpt>
    </trkseg>
  </trk>
</gpx>